sensor_id;sensor_type;location;lat;lon;timestamp;P1;durP1;ratioP1;P2;durP2;ratioP2
40288;SDS011;28991;52.028;5.526;2024-02-26T00:02:14;0.57;;;0.57;;
40288;SDS011;28991;52.028;5.526;2024-02-26T00:04:40;0.50;;;0.50;;
40288;SDS011;28991;52.028;5.526;2024-02-26T00:07:05;0.68;;;0.68;;
40288;SDS011;28991;52.028;5.526;2024-02-26T00:09:31;0.60;;;0.50;;
40288;SDS011;28991;52.028;5.526;2024-02-26T00:12:00;0.50;;;0.50;;
40288;SDS011;28991;52.028;5.526;2024-02-26T00:14:26;0.50;;;0.50;;
40288;SDS011;28991;52.028;5.526;2024-02-26T00:16:52;0.88;;;0.88;;
40288;SDS011;28991;52.028;5.526;2024-02-26T00:19:17;0.50;;;0.50;;
40288;SDS011;28991;52.028;5.526;2024-02-26T00:21:43;0.45;;;0.45;;
40288;SDS011;28991;52.028;5.526;2024-02-26T00:24:09;0.40;;;0.40;;
40288;SDS011;28991;52.028;5.526;2024-02-26T00:26:34;2.05;;;0.65;;
40288;SDS011;28991;52.028;5.526;2024-02-26T00:29:00;0.30;;;0.30;;
40288;SDS011;28991;52.028;5.526;2024-02-26T00:31:25;0.73;;;0.50;;
40288;SDS011;28991;52.028;5.526;2024-02-26T00:33:51;0.63;;;0.60;;
40288;SDS011;28991;52.028;5.526;2024-02-26T00:36:16;0.50;;;0.50;;
40288;SDS011;28991;52.028;5.526;2024-02-26T00:38:43;0.73;;;0.70;;
40288;SDS011;28991;52.028;5.526;2024-02-26T00:41:11;1.80;;;0.73;;
40288;SDS011;28991;52.028;5.526;2024-02-26T00:43:36;0.95;;;0.60;;
40288;SDS011;28991;52.028;5.526;2024-02-26T00:46:04;0.70;;;0.60;;
40288;SDS011;28991;52.028;5.526;2024-02-26T00:48:30;0.40;;;0.40;;
40288;SDS011;28991;52.028;5.526;2024-02-26T00:50:55;0.77;;;0.63;;
40288;SDS011;28991;52.028;5.526;2024-02-26T00:53:21;0.40;;;0.40;;
40288;SDS011;28991;52.028;5.526;2024-02-26T00:55:47;0.45;;;0.45;;
40288;SDS011;28991;52.028;5.526;2024-02-26T00:58:12;0.65;;;0.65;;
40288;SDS011;28991;52.028;5.526;2024-02-26T01:00:38;0.63;;;0.60;;
40288;SDS011;28991;52.028;5.526;2024-02-26T01:03:03;0.73;;;0.63;;
40288;SDS011;28991;52.028;5.526;2024-02-26T01:05:29;0.70;;;0.63;;
40288;SDS011;28991;52.028;5.526;2024-02-26T01:07:55;2.08;;;0.80;;
40288;SDS011;28991;52.028;5.526;2024-02-26T01:10:20;0.60;;;0.60;;
40288;SDS011;28991;52.028;5.526;2024-02-26T01:12:46;0.77;;;0.73;;
40288;SDS011;28991;52.028;5.526;2024-02-26T01:15:12;0.77;;;0.73;;
40288;SDS011;28991;52.028;5.526;2024-02-26T01:17:38;0.75;;;0.60;;
40288;SDS011;28991;52.028;5.526;2024-02-26T01:20:04;0.50;;;0.50;;
40288;SDS011;28991;52.028;5.526;2024-02-26T01:22:30;1.30;;;0.73;;
40288;SDS011;28991;52.028;5.526;2024-02-26T01:24:55;0.60;;;0.60;;
40288;SDS011;28991;52.028;5.526;2024-02-26T01:27:21;0.50;;;0.50;;
40288;SDS011;28991;52.028;5.526;2024-02-26T01:29:51;0.45;;;0.45;;
40288;SDS011;28991;52.028;5.526;2024-02-26T01:32:17;0.50;;;0.50;;
40288;SDS011;28991;52.028;5.526;2024-02-26T01:34:43;0.55;;;0.55;;
40288;SDS011;28991;52.028;5.526;2024-02-26T01:37:08;0.68;;;0.50;;
40288;SDS011;28991;52.028;5.526;2024-02-26T01:39:34;0.40;;;0.40;;
40288;SDS011;28991;52.028;5.526;2024-02-26T01:41:59;0.73;;;0.73;;
40288;SDS011;28991;52.028;5.526;2024-02-26T01:44:26;0.50;;;0.50;;
40288;SDS011;28991;52.028;5.526;2024-02-26T01:46:52;0.55;;;0.55;;
40288;SDS011;28991;52.028;5.526;2024-02-26T01:49:18;0.63;;;0.40;;
40288;SDS011;28991;52.028;5.526;2024-02-26T01:51:44;0.50;;;0.50;;
40288;SDS011;28991;52.028;5.526;2024-02-26T01:54:11;1.00;;;0.73;;
40288;SDS011;28991;52.028;5.526;2024-02-26T01:56:37;1.02;;;0.73;;
40288;SDS011;28991;52.028;5.526;2024-02-26T01:59:05;0.60;;;0.60;;
40288;SDS011;28991;52.028;5.526;2024-02-26T02:01:31;0.43;;;0.43;;
40288;SDS011;28991;52.028;5.526;2024-02-26T02:03:59;0.93;;;0.60;;
40288;SDS011;28991;52.028;5.526;2024-02-26T02:06:25;0.50;;;0.50;;
40288;SDS011;28991;52.028;5.526;2024-02-26T02:08:54;0.50;;;0.50;;
40288;SDS011;28991;52.028;5.526;2024-02-26T02:11:20;0.57;;;0.57;;
40288;SDS011;28991;52.028;5.526;2024-02-26T02:13:46;1.10;;;0.70;;
40288;SDS011;28991;52.028;5.526;2024-02-26T02:16:12;0.77;;;0.50;;
40288;SDS011;28991;52.028;5.526;2024-02-26T02:18:37;0.60;;;0.60;;
40288;SDS011;28991;52.028;5.526;2024-02-26T02:21:03;0.77;;;0.52;;
40288;SDS011;28991;52.028;5.526;2024-02-26T02:23:29;0.68;;;0.60;;
40288;SDS011;28991;52.028;5.526;2024-02-26T02:25:55;0.50;;;0.50;;
40288;SDS011;28991;52.028;5.526;2024-02-26T02:28:22;1.05;;;0.70;;
40288;SDS011;28991;52.028;5.526;2024-02-26T02:30:49;0.70;;;0.70;;
40288;SDS011;28991;52.028;5.526;2024-02-26T02:33:16;0.73;;;0.60;;
40288;SDS011;28991;52.028;5.526;2024-02-26T02:35:42;0.52;;;0.50;;
40288;SDS011;28991;52.028;5.526;2024-02-26T02:38:08;0.98;;;0.70;;
40288;SDS011;28991;52.028;5.526;2024-02-26T02:40:33;0.95;;;0.80;;
40288;SDS011;28991;52.028;5.526;2024-02-26T02:42:59;0.50;;;0.45;;
40288;SDS011;28991;52.028;5.526;2024-02-26T02:45:26;0.88;;;0.70;;
40288;SDS011;28991;52.028;5.526;2024-02-26T02:47:52;0.80;;;0.60;;
40288;SDS011;28991;52.028;5.526;2024-02-26T02:50:18;0.65;;;0.65;;
40288;SDS011;28991;52.028;5.526;2024-02-26T02:52:44;0.60;;;0.52;;
40288;SDS011;28991;52.028;5.526;2024-02-26T02:55:09;0.40;;;0.40;;
40288;SDS011;28991;52.028;5.526;2024-02-26T02:57:35;0.35;;;0.35;;
40288;SDS011;28991;52.028;5.526;2024-02-26T03:00:06;0.73;;;0.60;;
40288;SDS011;28991;52.028;5.526;2024-02-26T03:02:35;0.73;;;0.65;;
40288;SDS011;28991;52.028;5.526;2024-02-26T03:05:01;0.50;;;0.50;;
40288;SDS011;28991;52.028;5.526;2024-02-26T03:07:27;0.70;;;0.55;;
40288;SDS011;28991;52.028;5.526;2024-02-26T03:09:53;0.50;;;0.50;;
40288;SDS011;28991;52.028;5.526;2024-02-26T03:12:19;0.65;;;0.60;;
40288;SDS011;28991;52.028;5.526;2024-02-26T03:14:44;0.65;;;0.50;;
40288;SDS011;28991;52.028;5.526;2024-02-26T03:17:10;0.63;;;0.60;;
40288;SDS011;28991;52.028;5.526;2024-02-26T03:19:35;0.70;;;0.68;;
40288;SDS011;28991;52.028;5.526;2024-02-26T03:22:01;0.80;;;0.60;;
40288;SDS011;28991;52.028;5.526;2024-02-26T03:24:27;0.63;;;0.60;;
40288;SDS011;28991;52.028;5.526;2024-02-26T03:26:52;0.63;;;0.63;;
40288;SDS011;28991;52.028;5.526;2024-02-26T03:29:18;0.40;;;0.40;;
40288;SDS011;28991;52.028;5.526;2024-02-26T03:31:44;0.98;;;0.75;;
40288;SDS011;28991;52.028;5.526;2024-02-26T03:34:09;0.50;;;0.50;;
40288;SDS011;28991;52.028;5.526;2024-02-26T03:36:37;0.65;;;0.60;;
40288;SDS011;28991;52.028;5.526;2024-02-26T03:39:03;0.70;;;0.70;;
40288;SDS011;28991;52.028;5.526;2024-02-26T03:41:32;0.60;;;0.60;;
40288;SDS011;28991;52.028;5.526;2024-02-26T03:43:58;0.90;;;0.50;;
40288;SDS011;28991;52.028;5.526;2024-02-26T03:46:24;0.40;;;0.40;;
40288;SDS011;28991;52.028;5.526;2024-02-26T03:48:49;0.98;;;0.70;;
40288;SDS011;28991;52.028;5.526;2024-02-26T03:51:15;1.48;;;0.63;;
40288;SDS011;28991;52.028;5.526;2024-02-26T03:53:40;0.75;;;0.65;;
40288;SDS011;28991;52.028;5.526;2024-02-26T03:56:06;0.65;;;0.60;;
40288;SDS011;28991;52.028;5.526;2024-02-26T03:58:32;0.50;;;0.50;;
40288;SDS011;28991;52.028;5.526;2024-02-26T04:00:58;0.77;;;0.70;;
40288;SDS011;28991;52.028;5.526;2024-02-26T04:03:24;0.90;;;0.50;;
40288;SDS011;28991;52.028;5.526;2024-02-26T04:05:50;1.50;;;0.65;;
40288;SDS011;28991;52.028;5.526;2024-02-26T04:08:16;0.60;;;0.60;;
40288;SDS011;28991;52.028;5.526;2024-02-26T04:10:41;0.60;;;0.60;;
40288;SDS011;28991;52.028;5.526;2024-02-26T04:13:07;0.98;;;0.60;;
40288;SDS011;28991;52.028;5.526;2024-02-26T04:15:33;1.05;;;0.63;;
40288;SDS011;28991;52.028;5.526;2024-02-26T04:17:58;0.50;;;0.50;;
40288;SDS011;28991;52.028;5.526;2024-02-26T04:20:24;0.60;;;0.50;;
40288;SDS011;28991;52.028;5.526;2024-02-26T04:22:50;0.40;;;0.40;;
40288;SDS011;28991;52.028;5.526;2024-02-26T04:25:15;0.40;;;0.40;;
40288;SDS011;28991;52.028;5.526;2024-02-26T04:27:41;0.88;;;0.50;;
40288;SDS011;28991;52.028;5.526;2024-02-26T04:30:07;0.77;;;0.63;;
40288;SDS011;28991;52.028;5.526;2024-02-26T04:32:33;0.98;;;0.80;;
40288;SDS011;28991;52.028;5.526;2024-02-26T04:34:59;0.50;;;0.50;;
40288;SDS011;28991;52.028;5.526;2024-02-26T04:37:25;0.60;;;0.57;;
40288;SDS011;28991;52.028;5.526;2024-02-26T04:39:56;0.50;;;0.50;;
40288;SDS011;28991;52.028;5.526;2024-02-26T04:42:24;0.40;;;0.40;;
40288;SDS011;28991;52.028;5.526;2024-02-26T04:44:50;0.60;;;0.60;;
40288;SDS011;28991;52.028;5.526;2024-02-26T04:47:16;1.17;;;0.93;;
40288;SDS011;28991;52.028;5.526;2024-02-26T04:49:41;0.60;;;0.60;;
40288;SDS011;28991;52.028;5.526;2024-02-26T04:52:07;0.40;;;0.40;;
40288;SDS011;28991;52.028;5.526;2024-02-26T04:54:32;0.50;;;0.50;;
40288;SDS011;28991;52.028;5.526;2024-02-26T04:56:58;0.50;;;0.50;;
40288;SDS011;28991;52.028;5.526;2024-02-26T04:59:24;0.52;;;0.52;;
40288;SDS011;28991;52.028;5.526;2024-02-26T05:01:49;0.75;;;0.63;;
40288;SDS011;28991;52.028;5.526;2024-02-26T05:04:16;0.50;;;0.50;;
40288;SDS011;28991;52.028;5.526;2024-02-26T05:06:42;0.50;;;0.50;;
40288;SDS011;28991;52.028;5.526;2024-02-26T05:09:07;0.40;;;0.40;;
40288;SDS011;28991;52.028;5.526;2024-02-26T05:11:33;0.98;;;0.63;;
40288;SDS011;28991;52.028;5.526;2024-02-26T05:13:59;0.50;;;0.50;;
40288;SDS011;28991;52.028;5.526;2024-02-26T05:16:25;0.45;;;0.45;;
40288;SDS011;28991;52.028;5.526;2024-02-26T05:18:52;1.30;;;0.60;;
40288;SDS011;28991;52.028;5.526;2024-02-26T05:21:18;0.85;;;0.80;;
40288;SDS011;28991;52.028;5.526;2024-02-26T05:23:43;0.93;;;0.60;;
40288;SDS011;28991;52.028;5.526;2024-02-26T05:26:10;0.70;;;0.57;;
40288;SDS011;28991;52.028;5.526;2024-02-26T05:28:36;0.52;;;0.52;;
40288;SDS011;28991;52.028;5.526;2024-02-26T05:31:04;0.60;;;0.60;;
40288;SDS011;28991;52.028;5.526;2024-02-26T05:33:30;0.50;;;0.50;;
40288;SDS011;28991;52.028;5.526;2024-02-26T05:35:55;0.60;;;0.60;;
40288;SDS011;28991;52.028;5.526;2024-02-26T05:38:21;0.63;;;0.50;;
40288;SDS011;28991;52.028;5.526;2024-02-26T05:40:47;0.70;;;0.68;;
40288;SDS011;28991;52.028;5.526;2024-02-26T05:43:12;0.50;;;0.50;;
40288;SDS011;28991;52.028;5.526;2024-02-26T05:45:40;0.70;;;0.63;;
40288;SDS011;28991;52.028;5.526;2024-02-26T05:48:06;0.50;;;0.50;;
40288;SDS011;28991;52.028;5.526;2024-02-26T05:50:32;0.85;;;0.30;;
40288;SDS011;28991;52.028;5.526;2024-02-26T05:52:57;0.63;;;0.60;;
40288;SDS011;28991;52.028;5.526;2024-02-26T05:55:23;0.75;;;0.70;;
40288;SDS011;28991;52.028;5.526;2024-02-26T05:57:48;0.55;;;0.50;;
40288;SDS011;28991;52.028;5.526;2024-02-26T06:00:14;0.70;;;0.57;;
40288;SDS011;28991;52.028;5.526;2024-02-26T06:02:40;0.70;;;0.65;;
40288;SDS011;28991;52.028;5.526;2024-02-26T06:05:06;1.02;;;0.70;;
40288;SDS011;28991;52.028;5.526;2024-02-26T06:07:33;1.10;;;1.00;;
40288;SDS011;28991;52.028;5.526;2024-02-26T06:09:59;1.30;;;1.17;;
40288;SDS011;28991;52.028;5.526;2024-02-26T06:12:25;1.33;;;1.23;;
40288;SDS011;28991;52.028;5.526;2024-02-26T06:14:53;1.05;;;0.90;;
40288;SDS011;28991;52.028;5.526;2024-02-26T06:17:19;1.50;;;1.00;;
40288;SDS011;28991;52.028;5.526;2024-02-26T06:19:44;1.23;;;1.00;;
40288;SDS011;28991;52.028;5.526;2024-02-26T06:22:10;2.58;;;0.93;;
40288;SDS011;28991;52.028;5.526;2024-02-26T06:24:35;1.08;;;0.98;;
40288;SDS011;28991;52.028;5.526;2024-02-26T06:27:01;1.17;;;1.08;;
40288;SDS011;28991;52.028;5.526;2024-02-26T06:29:27;1.00;;;0.90;;
40288;SDS011;28991;52.028;5.526;2024-02-26T06:31:53;1.15;;;1.05;;
40288;SDS011;28991;52.028;5.526;2024-02-26T06:34:18;0.75;;;0.75;;
40288;SDS011;28991;52.028;5.526;2024-02-26T06:36:44;4.40;;;1.42;;
40288;SDS011;28991;52.028;5.526;2024-02-26T06:39:10;1.95;;;1.30;;
40288;SDS011;28991;52.028;5.526;2024-02-26T06:41:35;1.92;;;1.25;;
40288;SDS011;28991;52.028;5.526;2024-02-26T06:44:01;0.90;;;0.90;;
40288;SDS011;28991;52.028;5.526;2024-02-26T06:46:27;0.98;;;0.80;;
40288;SDS011;28991;52.028;5.526;2024-02-26T06:48:55;0.77;;;0.77;;
40288;SDS011;28991;52.028;5.526;2024-02-26T06:51:21;0.90;;;0.70;;
40288;SDS011;28991;52.028;5.526;2024-02-26T06:53:47;0.93;;;0.90;;
40288;SDS011;28991;52.028;5.526;2024-02-26T06:56:14;0.50;;;0.50;;
40288;SDS011;28991;52.028;5.526;2024-02-26T06:58:39;0.52;;;0.52;;
40288;SDS011;28991;52.028;5.526;2024-02-26T07:01:05;0.50;;;0.50;;
40288;SDS011;28991;52.028;5.526;2024-02-26T07:03:30;0.70;;;0.70;;
40288;SDS011;28991;52.028;5.526;2024-02-26T07:05:57;0.60;;;0.60;;
40288;SDS011;28991;52.028;5.526;2024-02-26T07:08:23;0.90;;;0.70;;
40288;SDS011;28991;52.028;5.526;2024-02-26T07:10:48;0.50;;;0.50;;
40288;SDS011;28991;52.028;5.526;2024-02-26T07:13:14;0.88;;;0.60;;
40288;SDS011;28991;52.028;5.526;2024-02-26T07:15:40;0.70;;;0.70;;
40288;SDS011;28991;52.028;5.526;2024-02-26T07:18:05;2.10;;;0.60;;
40288;SDS011;28991;52.028;5.526;2024-02-26T07:20:31;0.68;;;0.68;;
40288;SDS011;28991;52.028;5.526;2024-02-26T07:22:57;0.60;;;0.60;;
40288;SDS011;28991;52.028;5.526;2024-02-26T07:25:23;0.63;;;0.63;;
40288;SDS011;28991;52.028;5.526;2024-02-26T07:27:49;0.60;;;0.60;;
40288;SDS011;28991;52.028;5.526;2024-02-26T07:30:15;1.35;;;0.85;;
40288;SDS011;28991;52.028;5.526;2024-02-26T07:32:41;0.82;;;0.82;;
40288;SDS011;28991;52.028;5.526;2024-02-26T07:35:08;3.20;;;1.58;;
40288;SDS011;28991;52.028;5.526;2024-02-26T07:37:33;1.88;;;1.60;;
40288;SDS011;28991;52.028;5.526;2024-02-26T07:39:59;1.67;;;1.30;;
40288;SDS011;28991;52.028;5.526;2024-02-26T07:42:25;1.90;;;0.75;;
40288;SDS011;28991;52.028;5.526;2024-02-26T07:44:51;5.03;;;1.60;;
40288;SDS011;28991;52.028;5.526;2024-02-26T07:47:17;1.90;;;1.48;;
40288;SDS011;28991;52.028;5.526;2024-02-26T07:49:43;1.75;;;1.00;;
40288;SDS011;28991;52.028;5.526;2024-02-26T07:52:09;1.00;;;0.90;;
40288;SDS011;28991;52.028;5.526;2024-02-26T07:54:35;1.40;;;1.20;;
40288;SDS011;28991;52.028;5.526;2024-02-26T07:57:01;2.72;;;1.80;;
40288;SDS011;28991;52.028;5.526;2024-02-26T07:59:30;2.17;;;1.80;;
40288;SDS011;28991;52.028;5.526;2024-02-26T08:01:56;1.98;;;1.20;;
40288;SDS011;28991;52.028;5.526;2024-02-26T08:04:21;3.08;;;1.67;;
40288;SDS011;28991;52.028;5.526;2024-02-26T08:06:47;7.80;;;2.53;;
40288;SDS011;28991;52.028;5.526;2024-02-26T08:09:12;4.72;;;2.38;;
40288;SDS011;28991;52.028;5.526;2024-02-26T08:11:38;4.13;;;2.33;;
40288;SDS011;28991;52.028;5.526;2024-02-26T08:14:04;3.47;;;2.42;;
40288;SDS011;28991;52.028;5.526;2024-02-26T08:16:30;3.95;;;2.40;;
40288;SDS011;28991;52.028;5.526;2024-02-26T08:18:55;3.90;;;2.60;;
40288;SDS011;28991;52.028;5.526;2024-02-26T08:21:21;4.55;;;2.40;;
40288;SDS011;28991;52.028;5.526;2024-02-26T08:23:46;3.25;;;2.80;;
40288;SDS011;28991;52.028;5.526;2024-02-26T08:26:12;4.05;;;2.53;;
40288;SDS011;28991;52.028;5.526;2024-02-26T08:28:37;10.50;;;2.50;;
40288;SDS011;28991;52.028;5.526;2024-02-26T08:31:03;3.20;;;2.70;;
40288;SDS011;28991;52.028;5.526;2024-02-26T08:33:29;5.05;;;2.63;;
40288;SDS011;28991;52.028;5.526;2024-02-26T08:35:55;4.15;;;3.17;;
40288;SDS011;28991;52.028;5.526;2024-02-26T08:38:21;3.40;;;2.80;;
40288;SDS011;28991;52.028;5.526;2024-02-26T08:40:47;7.15;;;3.00;;
40288;SDS011;28991;52.028;5.526;2024-02-26T08:43:13;10.48;;;3.47;;
40288;SDS011;28991;52.028;5.526;2024-02-26T08:45:39;7.38;;;3.45;;
40288;SDS011;28991;52.028;5.526;2024-02-26T08:48:05;5.05;;;3.00;;
40288;SDS011;28991;52.028;5.526;2024-02-26T08:50:31;12.88;;;3.55;;
40288;SDS011;28991;52.028;5.526;2024-02-26T08:52:56;6.22;;;2.60;;
40288;SDS011;28991;52.028;5.526;2024-02-26T08:55:22;7.05;;;2.40;;
40288;SDS011;28991;52.028;5.526;2024-02-26T08:57:47;4.68;;;2.35;;
40288;SDS011;28991;52.028;5.526;2024-02-26T09:00:13;4.68;;;2.80;;
40288;SDS011;28991;52.028;5.526;2024-02-26T09:02:40;6.13;;;3.05;;
40288;SDS011;28991;52.028;5.526;2024-02-26T09:05:08;6.85;;;3.03;;
40288;SDS011;28991;52.028;5.526;2024-02-26T09:07:35;5.88;;;2.85;;
40288;SDS011;28991;52.028;5.526;2024-02-26T09:10:01;3.20;;;2.38;;
40288;SDS011;28991;52.028;5.526;2024-02-26T09:12:26;4.65;;;2.40;;
40288;SDS011;28991;52.028;5.526;2024-02-26T09:14:52;4.60;;;2.13;;
40288;SDS011;28991;52.028;5.526;2024-02-26T09:17:18;2.40;;;2.15;;
40288;SDS011;28991;52.028;5.526;2024-02-26T09:19:43;2.55;;;1.95;;
40288;SDS011;28991;52.028;5.526;2024-02-26T09:22:09;4.45;;;2.10;;
40288;SDS011;28991;52.028;5.526;2024-02-26T09:24:34;3.83;;;2.17;;
40288;SDS011;28991;52.028;5.526;2024-02-26T09:27:01;6.95;;;2.63;;
40288;SDS011;28991;52.028;5.526;2024-02-26T09:29:26;6.65;;;2.10;;
40288;SDS011;28991;52.028;5.526;2024-02-26T09:31:52;6.32;;;1.80;;
40288;SDS011;28991;52.028;5.526;2024-02-26T09:34:18;3.50;;;1.75;;
40288;SDS011;28991;52.028;5.526;2024-02-26T09:36:43;1.60;;;1.50;;
40288;SDS011;28991;52.028;5.526;2024-02-26T09:39:09;3.60;;;1.35;;
40288;SDS011;28991;52.028;5.526;2024-02-26T09:41:37;2.10;;;1.30;;
40288;SDS011;28991;52.028;5.526;2024-02-26T09:44:02;1.80;;;1.40;;
40288;SDS011;28991;52.028;5.526;2024-02-26T09:46:30;5.75;;;1.58;;
40288;SDS011;28991;52.028;5.526;2024-02-26T09:48:56;7.40;;;1.42;;
40288;SDS011;28991;52.028;5.526;2024-02-26T09:51:25;2.70;;;1.40;;
40288;SDS011;28991;52.028;5.526;2024-02-26T09:53:51;8.20;;;1.65;;
40288;SDS011;28991;52.028;5.526;2024-02-26T09:56:17;4.40;;;1.30;;
40288;SDS011;28991;52.028;5.526;2024-02-26T09:58:43;2.55;;;1.08;;
40288;SDS011;28991;52.028;5.526;2024-02-26T10:01:13;2.20;;;0.90;;
40288;SDS011;28991;52.028;5.526;2024-02-26T10:03:43;3.15;;;0.93;;
40288;SDS011;28991;52.028;5.526;2024-02-26T10:06:09;2.28;;;1.05;;
40288;SDS011;28991;52.028;5.526;2024-02-26T10:08:36;1.75;;;0.80;;
40288;SDS011;28991;52.028;5.526;2024-02-26T10:11:02;0.90;;;0.77;;
40288;SDS011;28991;52.028;5.526;2024-02-26T10:13:29;3.63;;;0.80;;
40288;SDS011;28991;52.028;5.526;2024-02-26T10:15:55;3.05;;;0.82;;
40288;SDS011;28991;52.028;5.526;2024-02-26T10:18:22;2.28;;;1.08;;
40288;SDS011;28991;52.028;5.526;2024-02-26T10:21:01;4.13;;;0.63;;
40288;SDS011;28991;52.028;5.526;2024-02-26T10:23:27;2.97;;;1.48;;
40288;SDS011;28991;52.028;5.526;2024-02-26T10:25:56;1.38;;;0.77;;
40288;SDS011;28991;52.028;5.526;2024-02-26T10:28:22;2.35;;;0.80;;
40288;SDS011;28991;52.028;5.526;2024-02-26T10:30:48;0.77;;;0.70;;
40288;SDS011;28991;52.028;5.526;2024-02-26T10:33:14;1.80;;;0.80;;
40288;SDS011;28991;52.028;5.526;2024-02-26T10:35:40;2.30;;;0.98;;
40288;SDS011;28991;52.028;5.526;2024-02-26T10:38:10;2.05;;;0.95;;
40288;SDS011;28991;52.028;5.526;2024-02-26T10:40:36;0.93;;;0.73;;
40288;SDS011;28991;52.028;5.526;2024-02-26T10:43:02;5.00;;;0.50;;
40288;SDS011;28991;52.028;5.526;2024-02-26T10:45:27;1.60;;;0.90;;
40288;SDS011;28991;52.028;5.526;2024-02-26T10:47:53;5.00;;;0.90;;
40288;SDS011;28991;52.028;5.526;2024-02-26T10:50:19;7.18;;;1.00;;
40288;SDS011;28991;52.028;5.526;2024-02-26T10:52:44;3.88;;;0.70;;
40288;SDS011;28991;52.028;5.526;2024-02-26T10:55:16;8.05;;;1.02;;
40288;SDS011;28991;52.028;5.526;2024-02-26T10:57:45;3.75;;;0.90;;
40288;SDS011;28991;52.028;5.526;2024-02-26T11:00:13;7.93;;;0.80;;
40288;SDS011;28991;52.028;5.526;2024-02-26T11:02:40;0.93;;;0.73;;
40288;SDS011;28991;52.028;5.526;2024-02-26T11:05:07;0.77;;;0.50;;
40288;SDS011;28991;52.028;5.526;2024-02-26T11:07:36;1.65;;;0.50;;
40288;SDS011;28991;52.028;5.526;2024-02-26T11:10:05;0.35;;;0.35;;
40288;SDS011;28991;52.028;5.526;2024-02-26T11:12:31;0.90;;;0.50;;
40288;SDS011;28991;52.028;5.526;2024-02-26T11:15:00;2.15;;;0.70;;
40288;SDS011;28991;52.028;5.526;2024-02-26T11:17:27;2.65;;;0.60;;
40288;SDS011;28991;52.028;5.526;2024-02-26T11:19:57;0.70;;;0.50;;
40288;SDS011;28991;52.028;5.526;2024-02-26T11:22:24;0.57;;;0.50;;
40288;SDS011;28991;52.028;5.526;2024-02-26T11:24:51;1.90;;;0.70;;
40288;SDS011;28991;52.028;5.526;2024-02-26T11:27:23;4.60;;;0.60;;
40288;SDS011;28991;52.028;5.526;2024-02-26T11:29:55;1.40;;;0.70;;
40288;SDS011;28991;52.028;5.526;2024-02-26T11:32:24;4.07;;;0.77;;
40288;SDS011;28991;52.028;5.526;2024-02-26T11:34:51;1.60;;;0.77;;
40288;SDS011;28991;52.028;5.526;2024-02-26T11:37:19;1.52;;;0.55;;
40288;SDS011;28991;52.028;5.526;2024-02-26T11:39:45;5.55;;;1.00;;
40288;SDS011;28991;52.028;5.526;2024-02-26T11:42:13;1.73;;;0.65;;
40288;SDS011;28991;52.028;5.526;2024-02-26T11:44:40;4.30;;;1.00;;
40288;SDS011;28991;52.028;5.526;2024-02-26T11:47:19;2.13;;;1.00;;
40288;SDS011;28991;52.028;5.526;2024-02-26T11:49:46;4.15;;;1.38;;
40288;SDS011;28991;52.028;5.526;2024-02-26T11:52:13;1.00;;;0.65;;
40288;SDS011;28991;52.028;5.526;2024-02-26T11:59:50;3.53;;;0.82;;
40288;SDS011;28991;52.028;5.526;2024-02-26T12:07:48;12.30;;;1.13;;
40288;SDS011;28991;52.028;5.526;2024-02-26T12:10:22;3.60;;;0.60;;
40288;SDS011;28991;52.028;5.526;2024-02-26T12:15:38;1.80;;;0.77;;
40288;SDS011;28991;52.028;5.526;2024-02-26T12:18:06;3.03;;;0.73;;
40288;SDS011;28991;52.028;5.526;2024-02-26T12:20:33;0.98;;;0.52;;
40288;SDS011;28991;52.028;5.526;2024-02-26T12:23:00;0.80;;;0.40;;
40288;SDS011;28991;52.028;5.526;2024-02-26T12:25:28;1.65;;;0.68;;
40288;SDS011;28991;52.028;5.526;2024-02-26T12:27:55;2.70;;;0.50;;
40288;SDS011;28991;52.028;5.526;2024-02-26T12:30:21;0.30;;;0.30;;
40288;SDS011;28991;52.028;5.526;2024-02-26T12:32:51;2.00;;;0.63;;
40288;SDS011;28991;52.028;5.526;2024-02-26T12:35:21;1.08;;;0.63;;
40288;SDS011;28991;52.028;5.526;2024-02-26T12:37:48;2.17;;;0.68;;
40288;SDS011;28991;52.028;5.526;2024-02-26T12:40:13;1.65;;;0.70;;
40288;SDS011;28991;52.028;5.526;2024-02-26T12:42:39;1.38;;;0.60;;
40288;SDS011;28991;52.028;5.526;2024-02-26T12:45:11;1.02;;;0.55;;
40288;SDS011;28991;52.028;5.526;2024-02-26T12:47:43;3.50;;;0.75;;
40288;SDS011;28991;52.028;5.526;2024-02-26T12:50:14;5.95;;;1.08;;
40288;SDS011;28991;52.028;5.526;2024-02-26T12:52:47;4.55;;;1.02;;
40288;SDS011;28991;52.028;5.526;2024-02-26T12:55:16;4.80;;;0.90;;
40288;SDS011;28991;52.028;5.526;2024-02-26T12:57:44;1.55;;;0.80;;
40288;SDS011;28991;52.028;5.526;2024-02-26T13:00:12;5.10;;;0.85;;
40288;SDS011;28991;52.028;5.526;2024-02-26T13:02:39;2.78;;;0.50;;
40288;SDS011;28991;52.028;5.526;2024-02-26T13:05:07;1.05;;;0.80;;
40288;SDS011;28991;52.028;5.526;2024-02-26T13:07:34;1.77;;;0.60;;
40288;SDS011;28991;52.028;5.526;2024-02-26T13:10:05;0.70;;;0.40;;
40288;SDS011;28991;52.028;5.526;2024-02-26T13:12:31;0.88;;;0.70;;
40288;SDS011;28991;52.028;5.526;2024-02-26T13:15:00;0.63;;;0.50;;
40288;SDS011;28991;52.028;5.526;2024-02-26T13:17:27;2.05;;;0.70;;
40288;SDS011;28991;52.028;5.526;2024-02-26T13:19:56;3.05;;;0.73;;
40288;SDS011;28991;52.028;5.526;2024-02-26T13:22:22;1.40;;;0.80;;
40288;SDS011;28991;52.028;5.526;2024-02-26T13:24:55;0.95;;;0.77;;
40288;SDS011;28991;52.028;5.526;2024-02-26T13:27:24;3.30;;;0.73;;
40288;SDS011;28991;52.028;5.526;2024-02-26T13:30:09;3.13;;;0.80;;
40288;SDS011;28991;52.028;5.526;2024-02-26T13:32:38;0.95;;;0.80;;
40288;SDS011;28991;52.028;5.526;2024-02-26T13:35:05;1.10;;;0.80;;
40288;SDS011;28991;52.028;5.526;2024-02-26T13:37:34;1.35;;;0.95;;
40288;SDS011;28991;52.028;5.526;2024-02-26T13:40:01;4.80;;;0.52;;
40288;SDS011;28991;52.028;5.526;2024-02-26T13:42:36;11.32;;;0.88;;
40288;SDS011;28991;52.028;5.526;2024-02-26T13:45:03;4.60;;;0.90;;
40288;SDS011;28991;52.028;5.526;2024-02-26T13:47:31;3.33;;;1.02;;
40288;SDS011;28991;52.028;5.526;2024-02-26T13:49:58;2.47;;;0.73;;
40288;SDS011;28991;52.028;5.526;2024-02-26T13:52:24;0.93;;;0.43;;
40288;SDS011;28991;52.028;5.526;2024-02-26T13:54:50;0.40;;;0.40;;
40288;SDS011;28991;52.028;5.526;2024-02-26T13:57:16;4.20;;;1.25;;
40288;SDS011;28991;52.028;5.526;2024-02-26T13:59:42;0.60;;;0.60;;
40288;SDS011;28991;52.028;5.526;2024-02-26T14:02:08;0.85;;;0.50;;
40288;SDS011;28991;52.028;5.526;2024-02-26T14:04:34;1.20;;;0.82;;
40288;SDS011;28991;52.028;5.526;2024-02-26T14:07:01;1.42;;;1.02;;
40288;SDS011;28991;52.028;5.526;2024-02-26T14:09:26;1.20;;;0.90;;
40288;SDS011;28991;52.028;5.526;2024-02-26T14:11:52;2.80;;;0.70;;
40288;SDS011;28991;52.028;5.526;2024-02-26T14:14:18;4.13;;;0.70;;
40288;SDS011;28991;52.028;5.526;2024-02-26T14:16:43;1.48;;;0.50;;
40288;SDS011;28991;52.028;5.526;2024-02-26T14:19:09;1.75;;;0.77;;
40288;SDS011;28991;52.028;5.526;2024-02-26T14:21:34;1.23;;;0.47;;
40288;SDS011;28991;52.028;5.526;2024-02-26T14:24:00;1.08;;;0.60;;
40288;SDS011;28991;52.028;5.526;2024-02-26T14:26:26;3.42;;;0.70;;
40288;SDS011;28991;52.028;5.526;2024-02-26T14:28:51;1.65;;;0.65;;
40288;SDS011;28991;52.028;5.526;2024-02-26T14:31:17;0.77;;;0.35;;
40288;SDS011;28991;52.028;5.526;2024-02-26T14:33:43;0.63;;;0.60;;
40288;SDS011;28991;52.028;5.526;2024-02-26T14:36:08;1.92;;;0.63;;
40288;SDS011;28991;52.028;5.526;2024-02-26T14:38:34;2.08;;;0.55;;
40288;SDS011;28991;52.028;5.526;2024-02-26T14:41:01;0.50;;;0.50;;
40288;SDS011;28991;52.028;5.526;2024-02-26T14:43:27;0.68;;;0.50;;
40288;SDS011;28991;52.028;5.526;2024-02-26T14:45:53;2.17;;;0.60;;
40288;SDS011;28991;52.028;5.526;2024-02-26T14:48:19;0.40;;;0.40;;
40288;SDS011;28991;52.028;5.526;2024-02-26T14:50:44;0.88;;;0.50;;
40288;SDS011;28991;52.028;5.526;2024-02-26T14:53:10;0.75;;;0.50;;
40288;SDS011;28991;52.028;5.526;2024-02-26T14:55:35;1.30;;;0.40;;
40288;SDS011;28991;52.028;5.526;2024-02-26T14:58:01;0.30;;;0.30;;